Trang, Thailand

9:25 AM ICT on July 27, 2016 (GMT +0700)
Trang | | Change Station

Elev 52 ft 7.51 °N, 99.62 °E | Updated 25 minutes ago

Partly Cloudy
Partly Cloudy
82 °F
Feels Like 91 °F
N
0
Wind Variable Wind from North

Today
High -- | Low -- °F
--% Chance of Precip.
Yesterday
High -- | Low -- °F
Precip. -- in
Pressure 29.80 in
Visibility 5.0 miles
Clouds Few 2000 ft
Heat Index 91 °F
Dew Point 77 °F
Humidity 84%
Rainfall 0.00 in
Snow Depth Not available.
6:13 AM 6:42 PM
Waning Gibbous, 48% visible
METAR VTST 270200Z 00000KT 8000 FEW020 28/25 Q1009 RWY08 INFO C
Pressure 29.80 in
Visibility 5.0 miles
Clouds Few 2000 ft
Heat Index 91 °F
Dew Point 77 °F
Humidity 84%
Rainfall 0.00 in
Snow Depth Not available.
6:13 AM 6:42 PM
Waning Gibbous, 48% visible
METAR VTST 270200Z 00000KT 8000 FEW020 28/25 Q1009 RWY08 INFO C

10-Day Weather Forecast

No radar image for this location.
×

Almanac

Astronomy

Jul. 27, 2016 Rise Set
Actual Time
Civil Twilight
Nautical Twilight
Astronomical Twilight
Moon
Length of Visible Light
Length of Day
Tomorrow will be .
, % of the Moon is Illuminated

Today's Extremes

Country Highs Country Lows

Community

WunderPhotos

Upload Photos

1,927,777 photos uploaded!

WunderBlog® & News

Nearby

Air Quality

  Air Quality AQ Index Pollutant
Not available.

Snow Depth

Station Depth Elevation

Earthquake Activity

City Distance Mag. Time & Date
Minimum magnitude displayed is 2.5.

Coastal Water Temperatures

Place Temperature

Stations

Nearby Weather Stations

Station Location Temp. Windchill Dew Point Humidity Wind Precip. Elev Updated Type